createdAt,value
2022-11-14T00:01:45.110Z,44.50
2022-11-14T00:04:17.379Z,40.70
2022-11-14T00:06:49.799Z,38.70
2022-11-14T00:09:26.097Z,37.60
2022-11-14T00:11:58.424Z,42.60
2022-11-14T00:14:30.796Z,46.70
2022-11-14T00:17:03.022Z,49.50
2022-11-14T00:19:35.424Z,44.80
2022-11-14T00:22:07.655Z,43.50
2022-11-14T00:24:39.914Z,42.40
2022-11-14T00:27:12.715Z,40.40
2022-11-14T00:29:45.026Z,36.70
2022-11-14T00:32:17.494Z,33.40
2022-11-14T00:34:50.552Z,28.80
2022-11-14T00:37:22.957Z,26.50
2022-11-14T00:39:55.231Z,26.50
2022-11-14T00:42:27.942Z,22.70
2022-11-14T00:45:00.173Z,24.40
2022-11-14T00:47:32.482Z,29.40
2022-11-14T00:50:05.260Z,32.60
2022-11-14T00:52:37.533Z,38.30
2022-11-14T00:55:11.602Z,39.30
2022-11-14T00:57:43.902Z,43.40
2022-11-14T01:00:17.999Z,46.20
2022-11-14T01:02:50.368Z,48.50
2022-11-14T01:05:22.733Z,47.60
2022-11-14T01:07:55.351Z,49.70
2022-11-14T01:10:27.571Z,49.70
2022-11-14T01:12:59.825Z,47.80
2022-11-14T01:15:32.154Z,46.00
2022-11-14T01:18:04.467Z,47.10
2022-11-14T01:20:36.708Z,50.60
2022-11-14T01:23:09.375Z,48.90
2022-11-14T01:25:43.181Z,45.00
2022-11-14T01:28:18.014Z,50.60
2022-11-14T01:30:50.291Z,48.10
2022-11-14T01:33:22.506Z,48.30
2022-11-14T01:35:54.836Z,46.20
2022-11-14T01:38:27.875Z,49.50
2022-11-14T01:41:00.593Z,45.10
2022-11-14T01:43:35.262Z,45.00
2022-11-14T01:46:11.293Z,42.10
2022-11-14T01:48:49.069Z,42.40
2022-11-14T01:51:26.787Z,46.10
2022-11-14T01:54:02.506Z,44.90
2022-11-14T01:56:38.373Z,43.30
2022-11-14T02:01:47.342Z,42.70
2022-11-14T02:04:24.615Z,35.60
2022-11-14T02:07:00.319Z,37.00
2022-11-14T02:09:36.712Z,39.70
2022-11-14T02:12:11.460Z,34.70
2022-11-14T02:14:45.465Z,35.60
2022-11-14T02:17:29.526Z,34.60
2022-11-14T02:20:15.915Z,37.40
2022-11-14T02:22:48.258Z,36.90
2022-11-14T02:25:21.364Z,39.50
2022-11-14T02:27:54.450Z,35.70
2022-11-14T02:30:27.012Z,37.20
2022-11-14T02:33:14.761Z,35.40
2022-11-14T02:35:47.317Z,35.60
2022-11-14T02:38:19.638Z,37.60
2022-11-14T02:40:51.899Z,36.50
2022-11-14T02:43:24.485Z,33.70
2022-11-14T02:46:01.413Z,37.80
2022-11-14T02:48:36.663Z,37.70
2022-11-14T02:51:09.054Z,38.70
2022-11-14T02:53:41.304Z,35.30
2022-11-14T02:56:13.662Z,35.90
2022-11-14T02:58:45.884Z,38.60
2022-11-14T03:01:21.323Z,37.30
2022-11-14T03:06:24.762Z,35.70
2022-11-14T03:08:57.016Z,34.40
2022-11-14T03:11:29.322Z,36.00
2022-11-14T03:14:02.091Z,35.90
2022-11-14T03:16:34.322Z,35.70
2022-11-14T03:19:06.651Z,34.20
2022-11-14T03:21:38.922Z,32.40
2022-11-14T03:24:11.402Z,38.50
2022-11-14T03:26:43.691Z,33.70
2022-11-14T03:29:15.934Z,31.60
2022-11-14T03:31:48.348Z,36.70
2022-11-14T03:34:20.593Z,33.60
2022-11-14T03:36:52.830Z,36.30
2022-11-14T03:39:25.154Z,34.30
2022-11-14T03:41:57.427Z,35.20
2022-11-14T03:44:29.695Z,35.10
2022-11-14T03:47:02.182Z,32.50
2022-11-14T03:49:34.551Z,37.00
2022-11-14T03:52:07.019Z,33.20
2022-11-14T03:54:39.935Z,36.70
2022-11-14T03:57:12.143Z,39.50
2022-11-14T03:59:44.388Z,37.60
2022-11-14T04:02:16.712Z,38.50
2022-11-14T04:04:48.895Z,37.70
2022-11-14T04:07:21.172Z,36.40
2022-11-14T04:09:53.540Z,35.40
2022-11-14T04:12:25.781Z,34.40
2022-11-14T04:14:58.221Z,37.80
2022-11-14T04:17:31.872Z,33.00
2022-11-14T04:20:08.142Z,34.50
2022-11-14T04:22:40.601Z,38.10
2022-11-14T04:25:13.086Z,34.80
2022-11-14T04:27:46.070Z,35.70
2022-11-14T04:30:18.989Z,40.40
2022-11-14T04:32:51.189Z,37.30
2022-11-14T04:35:23.447Z,31.40
2022-11-14T04:37:55.723Z,32.00
2022-11-14T04:40:28.001Z,33.10
2022-11-14T04:43:00.421Z,32.50
2022-11-14T04:45:32.698Z,36.60
2022-11-14T04:48:05.171Z,37.20
2022-11-14T04:50:37.559Z,35.90
2022-11-14T04:53:10.206Z,36.60
2022-11-14T04:55:42.743Z,34.40
2022-11-14T04:58:14.972Z,35.80
2022-11-14T05:00:47.249Z,34.80
2022-11-14T05:03:19.483Z,37.20
2022-11-14T05:05:51.754Z,33.90
2022-11-14T05:08:24.588Z,37.10
2022-11-14T05:10:57.001Z,35.80
2022-11-14T05:13:30.195Z,35.60
2022-11-14T05:16:03.706Z,35.40
2022-11-14T05:18:35.980Z,34.70
2022-11-14T05:21:08.855Z,31.30
2022-11-14T05:23:41.103Z,37.70
2022-11-14T05:26:16.567Z,33.30
2022-11-14T05:28:48.939Z,37.00
2022-11-14T05:31:21.210Z,35.80
2022-11-14T05:33:53.495Z,36.00
2022-11-14T05:36:25.973Z,40.50
2022-11-14T05:38:58.429Z,35.40
2022-11-14T05:41:30.704Z,32.70
2022-11-14T05:44:05.101Z,35.60
2022-11-14T05:46:37.398Z,35.80
2022-11-14T05:49:10.214Z,56.60
2022-11-14T05:51:42.516Z,48.40
2022-11-14T05:54:16.980Z,40.20
2022-11-14T05:56:49.245Z,37.40
2022-11-14T05:59:29.330Z,41.70
2022-11-14T06:02:04.829Z,35.90
2022-11-14T06:04:37.571Z,34.80
2022-11-14T06:07:10.113Z,35.20
2022-11-14T06:09:43.280Z,36.80
2022-11-14T06:12:16.365Z,43.20
2022-11-14T06:14:48.589Z,36.80
2022-11-14T06:17:21.014Z,37.70
2022-11-14T06:19:53.278Z,36.20
2022-11-14T06:22:25.683Z,38.10
2022-11-14T06:24:58.032Z,32.70
2022-11-14T06:27:30.367Z,38.10
2022-11-14T06:30:02.662Z,35.10
2022-11-14T06:32:35.074Z,42.00
2022-11-14T06:35:08.779Z,37.80
2022-11-14T06:37:41.026Z,36.00
2022-11-14T06:40:14.753Z,38.50
2022-11-14T06:42:46.937Z,36.00
2022-11-14T06:45:19.427Z,37.90
2022-11-14T06:47:51.764Z,36.50
2022-11-14T06:50:24.140Z,38.50
2022-11-14T06:52:59.453Z,39.90
2022-11-14T06:55:31.723Z,35.10
2022-11-14T06:58:04.088Z,38.10
2022-11-14T07:00:36.396Z,36.80
2022-11-14T07:03:08.657Z,40.80
2022-11-14T07:05:41.011Z,55.10
2022-11-14T07:08:16.089Z,43.70
2022-11-14T07:10:52.127Z,38.10
2022-11-14T07:13:24.319Z,39.70
2022-11-14T07:15:56.954Z,34.90
2022-11-14T07:18:31.213Z,39.30
2022-11-14T07:21:05.999Z,37.30
2022-11-14T07:23:38.594Z,35.00
2022-11-14T07:26:12.477Z,35.10
2022-11-14T07:28:51.783Z,90.50
2022-11-14T07:31:25.408Z,54.10
2022-11-14T07:33:57.671Z,42.20
2022-11-14T07:36:30.249Z,39.30
2022-11-14T07:39:02.566Z,65.80
2022-11-14T07:41:34.864Z,39.90
2022-11-14T07:44:07.483Z,39.30
2022-11-14T07:46:39.695Z,38.00
2022-11-14T07:49:11.944Z,38.20
2022-11-14T07:51:44.193Z,36.60
2022-11-14T07:54:16.613Z,38.10
2022-11-14T07:56:48.846Z,36.30
2022-11-14T07:59:21.150Z,35.00
2022-11-14T08:01:53.410Z,40.70
2022-11-14T08:04:26.271Z,36.50
2022-11-14T08:06:58.562Z,35.60
2022-11-14T08:09:30.824Z,35.70
2022-11-14T08:12:03.134Z,35.20
2022-11-14T08:14:35.332Z,34.70
2022-11-14T08:17:07.533Z,39.90
2022-11-14T08:19:39.773Z,59.70
2022-11-14T08:22:12.180Z,43.20
2022-11-14T08:24:44.503Z,40.80
2022-11-14T08:27:16.887Z,39.70
2022-11-14T08:29:51.228Z,35.70
2022-11-14T08:32:23.616Z,33.50
2022-11-14T08:34:55.813Z,34.10
2022-11-14T08:37:28.190Z,38.30
2022-11-14T08:40:00.516Z,35.40
2022-11-14T08:42:32.948Z,35.30
2022-11-14T08:45:06.050Z,32.80
2022-11-14T08:47:38.296Z,34.40
2022-11-14T08:50:11.313Z,30.90
2022-11-14T08:52:43.603Z,32.80
2022-11-14T08:55:16.056Z,28.60
2022-11-14T08:57:49.895Z,32.00
2022-11-14T09:00:23.567Z,31.70
2022-11-14T09:02:55.890Z,31.60
2022-11-14T09:05:28.184Z,33.90
2022-11-14T09:08:01.506Z,32.10
2022-11-14T09:10:33.772Z,30.70
2022-11-14T09:13:06.116Z,34.00
2022-11-14T09:15:38.360Z,29.50
2022-11-14T09:18:12.521Z,35.90
2022-11-14T09:20:45.176Z,34.90
2022-11-14T09:23:17.849Z,30.80
2022-11-14T09:25:50.328Z,29.30
2022-11-14T09:28:22.674Z,30.40
2022-11-14T09:30:54.923Z,33.30
2022-11-14T09:33:27.511Z,29.10
2022-11-14T09:36:04.557Z,29.20
2022-11-14T09:38:38.691Z,28.80
2022-11-14T09:41:26.086Z,35.20
2022-11-14T09:44:34.447Z,29.60
2022-11-14T09:47:11.021Z,30.60
2022-11-14T09:49:45.123Z,26.30
2022-11-14T09:52:28.234Z,31.20
2022-11-14T09:55:04.107Z,27.50
2022-11-14T10:00:16.828Z,26.20
2022-11-14T10:03:08.631Z,26.30
2022-11-14T10:05:50.751Z,29.80
2022-11-14T10:08:41.972Z,29.20
2022-11-14T10:11:22.625Z,30.10
2022-11-14T10:14:20.881Z,28.30
2022-11-14T10:17:07.845Z,29.00
2022-11-14T10:19:49.045Z,30.30
2022-11-14T10:22:39.899Z,31.90
2022-11-14T10:25:24.231Z,28.90
2022-11-14T10:28:16.816Z,28.30
2022-11-14T10:31:02.516Z,27.70
2022-11-14T10:33:48.097Z,28.00
2022-11-14T10:36:29.659Z,26.40
2022-11-14T10:39:11.163Z,29.50
2022-11-14T10:42:07.182Z,30.00
2022-11-14T10:44:44.766Z,29.30
2022-11-14T10:47:22.880Z,30.60
2022-11-14T10:49:59.139Z,27.40
2022-11-14T10:52:40.946Z,27.90
2022-11-14T10:55:17.808Z,30.10
2022-11-14T10:57:50.088Z,28.30
2022-11-14T11:00:24.359Z,26.30
2022-11-14T11:02:58.472Z,27.60
2022-11-14T11:05:33.244Z,28.50
2022-11-14T11:08:42.597Z,25.80
2022-11-14T11:11:32.942Z,28.10
2022-11-14T11:14:05.143Z,25.80
2022-11-14T11:16:37.371Z,24.70
2022-11-14T11:19:24.112Z,26.80
2022-11-14T11:21:56.415Z,26.50
2022-11-14T11:24:37.047Z,28.50
2022-11-14T11:27:25.405Z,27.30
2022-11-14T11:30:19.198Z,27.40
2022-11-14T11:32:51.572Z,26.60
2022-11-14T11:35:24.108Z,28.00
2022-11-14T11:38:02.879Z,26.70
2022-11-14T11:40:35.282Z,27.60
2022-11-14T11:46:10.947Z,27.30
2022-11-14T11:48:43.774Z,28.10
2022-11-14T11:51:21.164Z,28.70
2022-11-14T11:54:03.750Z,29.50
2022-11-14T11:56:37.295Z,26.50
2022-11-14T11:59:23.592Z,29.90
2022-11-14T12:04:27.721Z,26.20
2022-11-14T12:07:06.048Z,28.50
2022-11-14T12:10:09.216Z,25.70
2022-11-14T12:12:50.615Z,26.10
2022-11-14T12:15:34.442Z,27.20
2022-11-14T12:18:31.029Z,27.00
2022-11-14T12:21:19.828Z,24.70
2022-11-14T12:24:12.528Z,27.50
2022-11-14T12:26:58.367Z,25.80
2022-11-14T12:29:51.118Z,28.10
2022-11-14T12:32:32.654Z,26.00
2022-11-14T12:35:09.037Z,25.60
2022-11-14T12:37:54.240Z,26.40
2022-11-14T12:40:32.079Z,28.30
2022-11-14T12:43:05.559Z,26.20
2022-11-14T12:46:08.257Z,24.40
2022-11-14T12:48:42.527Z,50.80
2022-11-14T12:51:51.602Z,145.70
2022-11-14T12:54:52.308Z,41.10
2022-11-14T12:57:49.188Z,30.70
2022-11-14T13:00:22.220Z,28.60
2022-11-14T13:03:22.366Z,26.40
2022-11-14T13:06:02.533Z,26.80
2022-11-14T13:08:54.670Z,26.20
2022-11-14T13:12:02.963Z,24.30
2022-11-14T13:15:06.808Z,21.60
2022-11-14T13:17:56.775Z,23.70
2022-11-14T13:20:54.923Z,25.40
2022-11-14T13:23:59.184Z,21.70
2022-11-14T13:26:51.502Z,26.10
2022-11-14T13:30:02.818Z,25.70
2022-11-14T13:32:57.042Z,26.60
2022-11-14T13:36:00.778Z,26.10
2022-11-14T13:39:03.330Z,24.30
2022-11-14T13:42:17.859Z,23.00
2022-11-14T13:45:11.307Z,26.80
2022-11-14T13:48:17.359Z,24.20
2022-11-14T13:50:54.126Z,31.30
2022-11-14T13:53:31.271Z,64.90
2022-11-14T13:56:18.630Z,34.20
2022-11-14T13:59:15.423Z,25.20
2022-11-14T14:02:06.083Z,24.50
2022-11-14T14:04:50.076Z,24.40
2022-11-14T14:07:34.239Z,24.00
2022-11-14T14:10:20.879Z,28.10
2022-11-14T14:13:08.301Z,25.50
2022-11-14T14:15:50.507Z,24.90
2022-11-14T14:18:33.659Z,27.20
2022-11-14T14:21:12.152Z,24.00
2022-11-14T14:23:51.182Z,27.20
2022-11-14T14:26:32.779Z,24.10
2022-11-14T14:29:19.254Z,26.40
2022-11-14T14:31:51.910Z,24.20
2022-11-14T14:34:30.669Z,25.90
2022-11-14T14:37:02.898Z,26.80
2022-11-14T14:39:35.298Z,22.70
2022-11-14T14:42:13.407Z,26.40
2022-11-14T14:44:48.336Z,25.60
2022-11-14T14:47:34.345Z,24.40
2022-11-14T14:50:15.339Z,27.90
2022-11-14T14:52:47.796Z,25.90
2022-11-14T14:55:25.551Z,24.10
2022-11-14T14:57:57.826Z,56.60
2022-11-14T15:00:30.573Z,37.30
2022-11-14T15:03:04.224Z,29.10
2022-11-14T15:05:36.476Z,30.30
2022-11-14T15:08:13.802Z,34.30
2022-11-14T15:10:46.467Z,31.10
2022-11-14T15:13:21.217Z,30.40
2022-11-14T15:15:54.606Z,27.60
2022-11-14T15:18:30.759Z,29.00
2022-11-14T15:21:25.146Z,24.30
2022-11-14T15:24:13.912Z,24.10
2022-11-14T15:26:47.838Z,24.60
2022-11-14T15:29:22.260Z,29.70
2022-11-14T15:31:58.506Z,25.80
2022-11-14T15:34:33.446Z,24.10
2022-11-14T15:37:23.700Z,20.60
2022-11-14T15:40:15.792Z,19.60
2022-11-14T15:42:48.006Z,21.30
2022-11-14T15:45:27.617Z,18.30
2022-11-14T15:48:06.253Z,21.20
2022-11-14T15:50:38.562Z,16.50
2022-11-14T15:53:23.468Z,18.90
2022-11-14T15:55:55.776Z,20.00
2022-11-14T15:58:29.233Z,19.50
2022-11-14T16:01:01.862Z,17.00
2022-11-14T16:03:34.239Z,18.50
2022-11-14T16:06:06.677Z,20.50
2022-11-14T16:08:38.940Z,15.90
2022-11-14T16:11:11.491Z,16.70
2022-11-14T16:13:43.669Z,16.00
2022-11-14T16:16:16.052Z,13.90
2022-11-14T16:18:48.343Z,13.50
2022-11-14T16:21:21.402Z,14.00
2022-11-14T16:23:53.710Z,14.80
2022-11-14T16:26:26.650Z,15.80
2022-11-14T16:28:59.287Z,14.10
2022-11-14T16:31:31.518Z,17.00
2022-11-14T16:34:03.825Z,14.40
2022-11-14T16:36:36.091Z,14.70
2022-11-14T16:39:11.535Z,17.80
2022-11-14T16:41:44.117Z,14.50
2022-11-14T16:44:19.665Z,15.00
2022-11-14T16:46:52.016Z,18.60
2022-11-14T16:49:24.314Z,18.50
2022-11-14T16:51:58.564Z,18.00
2022-11-14T16:54:30.831Z,15.00
2022-11-14T16:57:03.055Z,15.80
2022-11-14T16:59:35.426Z,15.10
2022-11-14T17:02:07.734Z,15.20
2022-11-14T17:04:42.246Z,16.20
2022-11-14T17:07:18.927Z,14.80
2022-11-14T17:09:56.456Z,16.30
2022-11-14T17:12:28.710Z,14.80
2022-11-14T17:15:00.963Z,15.30
2022-11-14T17:17:33.818Z,17.10
2022-11-14T17:20:06.923Z,15.50
2022-11-14T17:22:39.331Z,15.50
2022-11-14T17:25:12.051Z,18.00
2022-11-14T17:27:44.391Z,15.70
2022-11-14T17:30:17.225Z,15.40
2022-11-14T17:32:56.153Z,15.70
2022-11-14T17:35:28.839Z,17.00
2022-11-14T17:38:01.783Z,17.10
2022-11-14T17:40:34.063Z,16.20
2022-11-14T17:43:06.458Z,16.60
2022-11-14T17:45:41.197Z,15.40
2022-11-14T17:48:15.410Z,14.70
2022-11-14T17:50:47.611Z,15.50
2022-11-14T17:53:20.119Z,17.60
2022-11-14T17:55:58.828Z,15.40
2022-11-14T17:58:33.076Z,16.40
2022-11-14T18:01:12.285Z,16.20
2022-11-14T18:03:44.819Z,17.60
2022-11-14T18:06:19.349Z,15.90
2022-11-14T18:08:51.780Z,15.80
2022-11-14T18:11:24.252Z,18.40
2022-11-14T18:13:57.946Z,14.40
2022-11-14T18:16:50.428Z,16.60
2022-11-14T18:19:23.490Z,15.40
2022-11-14T18:21:55.743Z,15.30
2022-11-14T18:24:28.077Z,15.90
2022-11-14T18:27:00.483Z,14.60
2022-11-14T18:29:32.837Z,16.60
2022-11-14T18:32:05.129Z,15.90
2022-11-14T18:34:37.808Z,15.20
2022-11-14T18:37:10.278Z,15.30
2022-11-14T18:39:42.543Z,16.60
2022-11-14T18:42:14.787Z,17.00
2022-11-14T18:44:47.029Z,13.90
2022-11-14T18:47:19.324Z,16.30
2022-11-14T18:49:51.661Z,14.80
2022-11-14T18:52:23.868Z,16.90
2022-11-14T18:54:56.332Z,14.70
2022-11-14T18:57:28.565Z,17.00
2022-11-14T19:00:00.800Z,17.40
2022-11-14T19:02:33.100Z,15.00
2022-11-14T19:05:05.673Z,13.40
2022-11-14T19:07:37.989Z,15.50
2022-11-14T19:10:11.598Z,15.70
2022-11-14T19:12:43.945Z,14.20
2022-11-14T19:15:16.344Z,14.10
2022-11-14T19:17:49.841Z,15.00
2022-11-14T19:20:22.087Z,14.80
2022-11-14T19:22:54.336Z,15.40
2022-11-14T19:25:26.797Z,15.80
2022-11-14T19:27:59.017Z,16.60
2022-11-14T19:30:31.326Z,15.00
2022-11-14T19:33:05.923Z,17.10
2022-11-14T19:35:40.538Z,18.40
2022-11-14T19:38:12.901Z,17.00
2022-11-14T19:40:50.958Z,34.50
2022-11-14T19:43:25.643Z,21.50
2022-11-14T19:46:01.585Z,19.20
2022-11-14T19:48:34.464Z,21.20
2022-11-14T19:51:08.941Z,21.10
2022-11-14T19:53:42.704Z,17.50
2022-11-14T19:56:16.721Z,19.70
2022-11-14T19:58:51.311Z,20.20
2022-11-14T20:01:26.066Z,19.90
2022-11-14T20:04:00.111Z,18.70
2022-11-14T20:06:34.554Z,20.90
2022-11-14T20:09:09.400Z,19.50
2022-11-14T20:11:42.060Z,19.80
2022-11-14T20:14:15.450Z,20.20
2022-11-14T20:16:47.851Z,18.40
2022-11-14T20:19:20.397Z,20.90
2022-11-14T20:21:52.917Z,21.00
2022-11-14T20:24:25.338Z,20.60
2022-11-14T20:26:58.439Z,19.70
2022-11-14T20:29:31.499Z,21.40
2022-11-14T20:32:04.538Z,20.30
2022-11-14T20:34:36.989Z,20.70
2022-11-14T20:37:11.319Z,20.20
2022-11-14T20:39:44.575Z,21.90
2022-11-14T20:42:17.004Z,19.80
2022-11-14T20:44:49.396Z,20.30
2022-11-14T20:47:22.715Z,19.10
2022-11-14T20:49:55.298Z,19.50
2022-11-14T20:52:27.924Z,24.80
2022-11-14T20:55:00.624Z,23.70
2022-11-14T20:57:35.164Z,19.10
2022-11-14T21:00:09.216Z,19.00
2022-11-14T21:02:41.650Z,18.50
2022-11-14T21:05:14.707Z,22.40
2022-11-14T21:07:46.942Z,22.10
2022-11-14T21:10:37.440Z,17.30
2022-11-14T21:13:29.457Z,16.50
2022-11-14T21:16:04.200Z,16.00
2022-11-14T21:18:38.994Z,19.80
2022-11-14T21:23:44.903Z,19.90
2022-11-14T21:26:19.122Z,19.80
2022-11-14T21:28:54.708Z,18.40
2022-11-14T21:31:31.799Z,18.90
2022-11-14T21:34:05.825Z,18.40
2022-11-14T21:36:45.027Z,20.40
2022-11-14T21:39:18.697Z,14.70
2022-11-14T21:41:51.159Z,16.90
2022-11-14T21:44:23.501Z,18.90
2022-11-14T21:46:56.259Z,19.30
2022-11-14T21:49:28.501Z,17.20
2022-11-14T21:52:00.771Z,19.80
2022-11-14T21:54:33.157Z,21.50
2022-11-14T21:57:09.733Z,22.30
2022-11-14T21:59:42.532Z,20.40
2022-11-14T22:02:33.347Z,22.00
2022-11-14T22:05:06.487Z,20.10
2022-11-14T22:07:40.505Z,19.50
2022-11-14T22:10:13.084Z,21.20
2022-11-14T22:12:45.460Z,18.40
2022-11-14T22:15:17.722Z,19.70
2022-11-14T22:17:50.039Z,18.10
2022-11-14T22:20:22.972Z,17.00
2022-11-14T22:22:57.990Z,18.60
2022-11-14T22:25:30.274Z,21.50
2022-11-14T22:28:02.487Z,21.10
2022-11-14T22:30:34.780Z,23.00
2022-11-14T22:33:07.185Z,18.30
2022-11-14T22:35:39.416Z,21.70
2022-11-14T22:38:11.751Z,22.30
2022-11-14T22:40:44.001Z,19.90
2022-11-14T22:43:17.248Z,20.20
2022-11-14T22:45:55.197Z,18.90
2022-11-14T22:48:29.244Z,19.10
2022-11-14T22:51:04.578Z,20.20
2022-11-14T22:53:38.574Z,19.40
2022-11-14T22:56:12.596Z,18.90
2022-11-14T22:58:46.033Z,20.50
2022-11-14T23:01:21.779Z,16.40
2022-11-14T23:03:58.482Z,20.20
2022-11-14T23:06:32.335Z,19.00
2022-11-14T23:09:05.392Z,18.40
2022-11-14T23:11:37.767Z,19.10
2022-11-14T23:14:13.052Z,20.10
2022-11-14T23:16:45.271Z,18.70
2022-11-14T23:19:17.578Z,18.10
2022-11-14T23:21:49.770Z,20.20
2022-11-14T23:24:22.056Z,19.50
2022-11-14T23:26:56.298Z,20.40
2022-11-14T23:29:29.113Z,20.50
2022-11-14T23:32:01.363Z,19.40
2022-11-14T23:34:33.728Z,17.50
2022-11-14T23:37:05.930Z,19.10
2022-11-14T23:39:38.171Z,18.80
2022-11-14T23:42:10.450Z,20.80
2022-11-14T23:44:42.795Z,18.10
2022-11-14T23:47:15.331Z,21.30
2022-11-14T23:49:47.558Z,22.10
2022-11-14T23:52:19.781Z,17.40
2022-11-14T23:54:52.068Z,19.60
2022-11-14T23:57:24.292Z,18.50
2022-11-14T23:59:56.509Z,20.00
